x

South Huron - 43nm East Of Oscoda, Mi (45008) Wave Buoy

6:50pm - Wed 26th Nov 2014 All times are CST. -6 hours from GMT.

  • Sig Wave height 1.3ft
  • Swell Direction
  • Peak Period 3s
  • Average Period 3s
  • Wind
    9mph
  • Sea Temp 43°f
  • Air Temp 34°f
  • Sea Pressure 1018.8mb
  • South Huron - 43nm East Of Oscoda, Mi
  • South Huron - 43nm East Of Oscoda, Mi

More Historic Weather Station data

Upgrade to MSW Pro to gain access to the past 30 days of data for over 8000 Wavebouys and Weather Stations around the globe.

Join Pro

Comparision Forecast

View Surf forecast
   
Wed 11/26 6:50pm 1.3ft 3s 3s 9
mph
1018.8mb 43f 34f
5:50pm 1.3ft 3s 3s 9 11 mph 1019.2mb 43f 35f
4:50pm 1.3ft 4s 3s 9 11 mph 1019.5mb 43f 35f
3:50pm 1.3ft 3s 3s 7 11 mph 1019.7mb 43f 36f
2:50pm 1ft 3s 3s 9 13 mph 1020mb 43f 35f
1:50pm 1ft 3s 3s 11 13 mph 1020.1mb 43f 34f
12:50pm 0.7ft  -  3s 7 9 mph 1020mb 43f 35f
11:50am 0.7ft  -  3s 4 7 mph 1020.2mb 43f 35f
10:50am 0.7ft  -  3s 4 7 mph 1021mb 43f 35f
9:50am 0.7ft  -  3s 7 9 mph 1021.6mb 43f 34f
8:50am 1ft 5s 3s 11
mph
1022.1mb 43f 34f
7:50am 1ft 3s 3s 4 7 mph 1022.4mb 43f 33f
6:50am 1.3ft 3s 3s 4 9 mph 1022.1mb 43f 32f
5:50am 1.3ft 4s 3s 7
mph
1022.3mb 43f 32f
4:50am 1.6ft 3s 3s 7 11 mph 1022.2mb 43f 32f
3:50am 1.6ft 4s 4s 11 16 mph 1021.9mb 43f 32f
2:50am 1.6ft 4s 4s 11 16 mph 1022.2mb 43f 33f
1:50am 2ft 4s 4s 11 18 mph 1022.3mb 43f 33f
12:50am 2.5ft 4s 4s 7 11 mph 1022.5mb 43f 32f
Tue 11/25 11:50pm 2.5ft 4s 4s 11 16 mph 1021.9mb 43f 33f
10:50pm 3ft 4s 4s 9 18 mph 1021.8mb 43f 33f
9:50pm 3.5ft 5s 4s 9 13 mph 1021.3mb 43f 33f
8:50pm 3.5ft 5s 4s 16 20 mph 1019.9mb 43f 33f
7:50pm 4.5ft 5s 4s 18 20 mph 1019.5mb 43f 34f
6:50pm 4.5ft 5s 4s 20 25 mph 1018.5mb 43f 34f
5:50pm 4.5ft 5s 5s 20 25 mph 1017.6mb 42f 34f
4:50pm 5ft 6s 5s 18 22 mph 1016.9mb 42f 33f
3:50pm 5.5ft 5s 5s 22 25 mph 1015.6mb 42f 34f
2:50pm 6ft 6s 5s 22 29 mph 1014.2mb 42f 33f
1:50pm 6ft 6s 5s 25 31 mph 1012.4mb 42f 35f
12:50pm 7ft 6s 5s 27 34 mph 1011.2mb 42f 35f
11:50am 7ft 6s 5s 29 36 mph 1010.2mb 43f 35f
10:50am 7.5ft 6s 5s 29 36 mph 1009.5mb 43f 35f
9:50am 8ft 7s 5s 31 36 mph 1008.6mb 44f 35f
8:50am 8ft 6s 5s 31 38 mph 1007.3mb 44f 35f
7:50am 8ft 7s 5s 31 38 mph 1006.5mb 44f 34f
6:50am 8ft 7s 5s 31 40 mph 1005.5mb 43f 34f
5:50am 9ft 7s 6s 34 40 mph 1004.6mb 43f 35f
4:50am 9ft 7s 6s 34 38 mph 1003.8mb 43f 35f
3:50am 9.5ft 7s 6s 34 43 mph 1002.8mb 44f 35f
2:50am 10ft 7s 6s 36 43 mph 1001.9mb 44f 35f
1:50am 11ft 7s 6s 36 45 mph 1001.1mb 44f 36f
12:50am 10.5ft 7s 6s 36 43 mph 1000mb 44f 36f
Mon 11/24 11:50pm 11ft 7s 6s 38 49 mph 999.2mb 43f 36f
10:50pm 11ft 7s 6s 38 45 mph 998.1mb 43f 37f
9:50pm 11.5ft 8s 6s 36 47 mph 996.8mb 43f 38f
8:50pm 12ft 8s 6s 40 49 mph 995.4mb 43f 38f
7:50pm 12.5ft 8s 6s 43 54 mph 994.3mb 43f 38f
6:50pm 11.5ft 7s 6s 45 54 mph 993mb 43f 39f
5:50pm 13ft 7s 6s 40 51 mph 991.4mb 43f 38f
4:50pm 8.5ft 6s 5s 45 56 mph 988.3mb 43f 41f
3:50pm 3.5ft 5s 4s 40 49 mph 985.8mb 43f 46f
2:50pm 3.5ft 5s 4s 11 16 mph 984.1mb 43f 46f
1:50pm 3.5ft 6s 4s 9 11 mph 983.1mb 42f 46f
12:50pm 3.5ft 6s 4s 11 13 mph 982.4mb 42f 46f
11:50am 3.5ft 5s 4s 13 18 mph 982.3mb 42f 47f
10:50am 3.5ft 6s 4s 16 18 mph 982.6mb 43f 47f
9:50am 4.5ft 6s 5s 16
mph
982.9mb 43f 46f
8:50am 4.5ft 6s 5s 18 20 mph 982.8mb 43f 47f
7:50am 5ft 7s 5s 18 20 mph 982.6mb 43f 47f
6:50am 6ft 6s 5s 18 20 mph 981.9mb 43f 47f
5:50am 6ft 6s 5s 22 27 mph 980.3mb 43f 47f
4:50am 6ft 6s 5s 27 31 mph 979.8mb 43f 48f
3:50am 7ft 7s 5s 25 29 mph 981mb 43f 47f
2:50am 6.5ft 6s 5s 27 36 mph 982.1mb 43f 48f
1:50am 5ft 5s 5s 27 31 mph 984.4mb 43f 47f
12:50am 4.5ft 5s 4s 22 27 mph 986.7mb 43f 46f
Sun 11/23 11:50pm 3.5ft 5s 4s 27 31 mph 989.4mb 43f 46f
10:50pm 3ft 5s 4s 25 29 mph 992.8mb 43f 47f
9:50pm 3ft 5s 4s 20 22 mph 995.8mb 43f 47f
8:50pm 3.5ft 5s 4s 16 18 mph 998.6mb 43f 46f
7:50pm 4ft 5s 4s 18 20 mph 999.9mb 43f 46f
6:50pm 4.5ft 5s 4s 22 27 mph 1001.5mb 43f 46f
5:50pm 4ft 5s 4s 18 22 mph 1003mb 43f 46f
4:50pm 4.5ft 6s 5s 18 22 mph 1004.2mb 43f 46f
3:50pm 4.5ft 5s 5s 22 27 mph 1004.6mb 43f 46f
2:50pm 4.5ft 6s 4s 22 27 mph 1005.7mb 43f 45f
1:50pm 5ft 6s 5s 22 27 mph 1006mb 43f 45f
12:50pm 4.5ft 6s 4s 25 27 mph 1007.4mb 43f 44f
11:50am 4.5ft 5s 4s 22 27 mph 1008.2mb 43f 44f
10:50am 3ft 4s 4s 20 25 mph 1009.8mb 43f 45f
9:50am 3ft 4s  -  18 22 mph 1011mb 44f 45f
8:50am 2.5ft 4s 4s 18 22 mph 1011.2mb 44f 45f
7:50am 2ft 4s 3s 18 20 mph 1011mb 44f 46f
6:50am 1.6ft 4s 3s 16 18 mph 1011.1mb 44f 46f
5:50am 1.6ft 4s 3s 16 18 mph 1010.8mb 44f 45f
4:50am 1.6ft 4s 4s 11 13 mph 1011.3mb 44f 45f
3:50am 2ft 5s 4s 9 11 mph 1011.7mb 44f 45f
2:50am 2ft 5s 4s 11 13 mph 1012mb 44f 45f